Terminal Aerodrome Forecast
Issued by NWS Sioux Falls, SD

Home | Current Version | Previous Version | Text Only | Print | Product List | Glossary On
Versions: 1 2 3 4 5 6 7 8 9 10 11 12 13 14 15 16 17
884
FTUS43 KFSD 301130
TAFFSD
TAF
KFSD 301130Z 3012/0112 07014G22KT P6SM OVC100
     FM301500 07017G25KT P6SM -RA OVC025
     FM301700 07019G26KT 4SM RA OVC015
     FM010000 06013G20KT 6SM -RA OVC015
     FM010700 03013KT P6SM OVC025
     FM010900 02011KT P6SM BKN040=

USA.gov is the U.S. government's official web portal to all federal, state and local government web resources and services.